Antelope, California
Current Conditions -  °F | °C
As of 4:50 AM on Friday 24 Oct 2014 (Local Time) from KMHR Reporting Station
Clear Clear  
Wind Chill: 52°   Ceiling: Unl
Heat Index: 52°   Visibility: 10mi
Dew Point: 52°   Wind: 0mph
Humidity: 100%   Direction: NA
Pressure: 29.97"   Gusts: NA
Location:  38.72°N, 121.37°W
Report Text: KMHR 241150Z 00000KT 10SM SKC 11/11 A2997
Loading
Personal Weather Stations






























Interactive Weather Map
Tropical Storm Tracking
New forecast layout! Learn more

10-Day Weather Forecast

Advertisements
Track Severe Weather on mobile